createdAt,value
2023-05-22T00:00:14.176Z,100847.19
2023-05-22T00:02:43.140Z,100846.16
2023-05-22T00:05:11.879Z,100840.97
2023-05-22T00:07:39.259Z,100835.16
2023-05-22T00:10:06.949Z,100834.84
2023-05-22T00:12:33.379Z,100828.22
2023-05-22T00:15:00.234Z,100828.03
2023-05-22T00:17:27.119Z,100822.91
2023-05-22T00:19:53.996Z,100825.56
2023-05-22T00:22:20.957Z,100816.69
2023-05-22T00:24:47.426Z,100821.38
2023-05-22T00:27:13.904Z,100821.25
2023-05-22T00:29:40.327Z,100820.41
2023-05-22T00:32:07.115Z,100824.88
2023-05-22T00:34:33.556Z,100815.53
2023-05-22T00:37:00.144Z,100812.38
2023-05-22T00:39:26.672Z,100817.16
2023-05-22T00:41:53.066Z,100812.97
2023-05-22T00:44:19.490Z,100811.72
2023-05-22T00:46:46.097Z,100807.72
2023-05-22T00:49:12.576Z,100811.69
2023-05-22T00:51:39.080Z,100814.53
2023-05-22T00:54:06.225Z,100815.66
2023-05-22T00:56:33.529Z,100809.56
2023-05-22T00:59:00.326Z,100807.34
2023-05-22T01:01:33.361Z,100811.63
2023-05-22T01:04:01.810Z,100809.91
2023-05-22T01:06:28.511Z,100807.16
2023-05-22T01:08:55.030Z,100816.28
2023-05-22T01:11:28.269Z,100814.16
2023-05-22T01:14:13.317Z,100810.16
2023-05-22T01:16:59.598Z,100808.59
2023-05-22T01:20:01.320Z,100816.84
2023-05-22T01:22:58.656Z,100809.81
2023-05-22T01:25:28.013Z,100812.63
2023-05-22T01:28:22.402Z,100815.59
2023-05-22T01:30:58.951Z,100815.31
2023-05-22T01:33:28.861Z,100820.78
2023-05-22T01:35:59.664Z,100819.66
2023-05-22T01:38:26.569Z,100819.16
2023-05-22T01:40:53.958Z,100824.88
2023-05-22T01:43:20.396Z,100828.94
2023-05-22T01:45:46.928Z,100826.72
2023-05-22T01:48:13.490Z,100823.97
2023-05-22T01:50:40.907Z,100821.03
2023-05-22T01:53:40.043Z,100822.94
2023-05-22T01:56:12.229Z,100816.91
2023-05-22T01:58:56.568Z,100817.81
2023-05-22T02:01:27.174Z,100821.91
2023-05-22T02:03:57.340Z,100815.88
2023-05-22T02:06:28.157Z,100812.09
2023-05-22T02:08:54.984Z,100817.69
2023-05-22T02:11:24.388Z,100816.63
2023-05-22T02:13:51.725Z,100811.72
2023-05-22T02:16:19.276Z,100817.22
2023-05-22T02:18:46.650Z,100810.31
2023-05-22T02:21:13.021Z,100810.16
2023-05-22T02:23:40.035Z,100818.56
2023-05-22T02:26:06.691Z,100813.06
2023-05-22T02:28:33.242Z,100817.97
2023-05-22T02:30:59.787Z,100813.06
2023-05-22T02:33:27.047Z,100811.66
2023-05-22T02:35:53.454Z,100816.34
2023-05-22T02:38:20.345Z,100805.13
2023-05-22T02:40:47.109Z,100800.19
2023-05-22T02:43:13.527Z,100799.97
2023-05-22T02:45:39.920Z,100797.53
2023-05-22T02:48:06.487Z,100797.31
2023-05-22T02:50:32.906Z,100794.03
2023-05-22T02:52:59.332Z,100794.56
2023-05-22T02:55:25.901Z,100786.59
2023-05-22T02:57:52.317Z,100795.78
2023-05-22T03:00:19.562Z,100784.91
2023-05-22T03:02:46.045Z,100790.53
2023-05-22T03:05:17.660Z,100791.91
2023-05-22T03:07:48.044Z,100784.00
2023-05-22T03:10:15.200Z,100785.13
2023-05-22T03:12:41.545Z,100783.53
2023-05-22T03:15:08.480Z,100781.06
2023-05-22T03:17:34.990Z,100786.28
2023-05-22T03:20:01.551Z,100783.66
2023-05-22T03:22:27.997Z,100785.09
2023-05-22T03:24:54.460Z,100784.91
2023-05-22T03:27:21.257Z,100791.47
2023-05-22T03:29:47.677Z,100785.09
2023-05-22T03:32:14.196Z,100781.53
2023-05-22T03:34:41.042Z,100786.78
2023-05-22T03:37:08.944Z,100793.22
2023-05-22T03:39:36.022Z,100797.56
2023-05-22T03:42:02.481Z,100795.47
2023-05-22T03:44:28.944Z,100797.97
2023-05-22T03:46:55.660Z,100803.16
2023-05-22T03:49:22.005Z,100802.88
2023-05-22T03:51:48.421Z,100803.44
2023-05-22T03:54:15.064Z,100803.75
2023-05-22T03:56:41.483Z,100804.56
2023-05-22T03:59:07.865Z,100806.53
2023-05-22T04:01:34.577Z,100800.00
2023-05-22T04:04:01.946Z,100807.41
2023-05-22T04:06:28.334Z,100804.38
2023-05-22T04:08:54.762Z,100806.56
2023-05-22T04:11:22.079Z,100816.22
2023-05-22T04:13:50.125Z,100820.53
2023-05-22T04:16:17.651Z,100815.34
2023-05-22T04:18:44.380Z,100823.03
2023-05-22T04:21:10.821Z,100825.25
2023-05-22T04:23:38.621Z,100835.75
2023-05-22T04:26:06.146Z,100837.91
2023-05-22T04:28:32.851Z,100832.94
2023-05-22T04:30:59.530Z,100831.84
2023-05-22T04:33:26.115Z,100835.66
2023-05-22T04:35:52.503Z,100838.94
2023-05-22T04:38:19.071Z,100844.41
2023-05-22T04:40:45.544Z,100835.31
2023-05-22T04:43:12.565Z,100836.16
2023-05-22T04:45:39.358Z,100836.09
2023-05-22T04:48:06.282Z,100840.50
2023-05-22T04:50:32.846Z,100846.06
2023-05-22T04:52:59.910Z,100846.19
2023-05-22T04:55:26.341Z,100847.78
2023-05-22T04:57:52.747Z,100846.38
2023-05-22T05:00:19.861Z,100845.47
2023-05-22T05:02:46.327Z,100843.31
2023-05-22T05:05:12.785Z,100836.16
2023-05-22T05:07:39.973Z,100844.31
2023-05-22T05:10:07.374Z,100846.44
2023-05-22T05:12:34.014Z,100847.50
2023-05-22T05:15:00.635Z,100846.94
2023-05-22T05:17:27.037Z,100848.59
2023-05-22T05:19:53.660Z,100840.91
2023-05-22T05:22:20.053Z,100843.91
2023-05-22T05:24:46.726Z,100838.06
2023-05-22T05:27:13.838Z,100855.03
2023-05-22T05:29:41.296Z,100854.94
2023-05-22T05:32:08.206Z,100861.22
2023-05-22T05:34:35.012Z,100859.84
2023-05-22T05:37:02.923Z,100856.44
2023-05-22T05:39:29.627Z,100857.94
2023-05-22T05:41:56.172Z,100857.03
2023-05-22T05:44:22.602Z,100857.28
2023-05-22T05:46:49.010Z,100856.09
2023-05-22T05:49:15.453Z,100857.38
2023-05-22T05:51:41.852Z,100863.09
2023-05-22T05:54:08.218Z,100861.94
2023-05-22T05:56:34.582Z,100862.53
2023-05-22T05:59:01.110Z,100860.50
2023-05-22T06:01:27.688Z,100872.50
2023-05-22T06:03:54.235Z,100871.59
2023-05-22T06:06:20.848Z,100863.56
2023-05-22T06:08:47.239Z,100873.72
2023-05-22T06:11:13.659Z,100873.91
2023-05-22T06:13:40.059Z,100869.81
2023-05-22T06:16:07.073Z,100875.41
2023-05-22T06:18:33.547Z,100878.16
2023-05-22T06:21:00.108Z,100878.59
2023-05-22T06:23:26.667Z,100879.63
2023-05-22T06:25:53.894Z,100878.59
2023-05-22T06:28:20.342Z,100881.34
2023-05-22T06:30:47.047Z,100885.22
2023-05-22T06:33:14.426Z,100881.06
2023-05-22T06:35:41.049Z,100882.84
2023-05-22T06:38:07.831Z,100883.88
2023-05-22T06:40:34.228Z,100886.63
2023-05-22T06:43:01.601Z,100892.81
2023-05-22T06:45:28.049Z,100890.34
2023-05-22T06:47:54.816Z,100898.22
2023-05-22T06:50:22.109Z,100907.88
2023-05-22T06:52:49.165Z,100904.31
2023-05-22T06:55:15.710Z,100909.81
2023-05-22T06:57:42.168Z,100911.81
2023-05-22T07:00:11.592Z,100908.84
2023-05-22T07:02:38.365Z,100916.00
2023-05-22T07:05:05.230Z,100918.94
2023-05-22T07:07:31.595Z,100918.84
2023-05-22T07:09:58.116Z,100911.16
2023-05-22T07:12:26.251Z,100908.84
2023-05-22T07:14:53.210Z,100917.03
2023-05-22T07:17:21.665Z,100926.00
2023-05-22T07:19:48.902Z,100915.56
2023-05-22T07:22:15.587Z,100921.06
2023-05-22T07:24:42.099Z,100917.81
2023-05-22T07:27:09.292Z,100920.50
2023-05-22T07:29:36.249Z,100922.06
2023-05-22T07:32:02.721Z,100925.28
2023-05-22T07:34:33.139Z,100926.56
2023-05-22T07:37:07.999Z,100930.69
2023-05-22T07:39:34.481Z,100929.06
2023-05-22T07:42:01.829Z,100929.50
2023-05-22T07:44:28.678Z,100934.34
2023-05-22T07:46:55.742Z,100933.00
2023-05-22T07:49:23.565Z,100937.56
2023-05-22T07:51:50.020Z,100936.94
2023-05-22T07:54:18.159Z,100933.91
2023-05-22T07:56:45.895Z,100934.94
2023-05-22T07:59:12.543Z,100934.56
2023-05-22T08:01:40.339Z,100943.94
2023-05-22T08:04:06.963Z,100945.25
2023-05-22T08:06:36.756Z,100940.56
2023-05-22T08:09:04.760Z,100952.53
2023-05-22T08:11:31.190Z,100942.72
2023-05-22T08:13:57.578Z,100949.56
2023-05-22T08:16:24.065Z,100943.25
2023-05-22T08:18:51.143Z,100946.28
2023-05-22T08:21:18.654Z,100949.56
2023-05-22T08:23:45.194Z,100950.38
2023-05-22T08:26:11.861Z,100947.56
2023-05-22T08:28:41.927Z,100951.78
2023-05-22T08:31:08.374Z,100954.03
2023-05-22T08:33:34.780Z,100950.09
2023-05-22T08:36:01.273Z,100951.50
2023-05-22T08:38:27.809Z,100963.25
2023-05-22T08:40:57.135Z,100953.06
2023-05-22T08:43:24.083Z,100956.63
2023-05-22T08:45:59.625Z,100956.63
2023-05-22T08:48:30.695Z,100956.63
2023-05-22T08:51:01.383Z,100962.19
2023-05-22T08:53:29.217Z,100964.88
2023-05-22T08:55:56.188Z,100961.22
2023-05-22T08:58:23.175Z,100957.00
2023-05-22T09:00:49.594Z,100952.53
2023-05-22T09:03:16.380Z,100957.44
2023-05-22T09:05:45.313Z,100957.72
2023-05-22T09:08:19.697Z,100967.25
2023-05-22T09:10:47.299Z,100964.44
2023-05-22T09:13:26.255Z,100960.78
2023-05-22T09:15:53.078Z,100961.56
2023-05-22T09:18:20.401Z,100970.34
2023-05-22T09:20:47.002Z,100967.31
2023-05-22T09:23:15.639Z,100953.53
2023-05-22T09:25:43.134Z,100971.78
2023-05-22T09:28:11.412Z,100967.69
2023-05-22T09:30:38.220Z,100967.69
2023-05-22T09:33:07.140Z,100967.19
2023-05-22T09:35:35.641Z,100973.22
2023-05-22T09:38:02.100Z,100964.44
2023-05-22T09:40:29.307Z,100966.50
2023-05-22T09:42:55.732Z,100965.47
2023-05-22T09:45:26.554Z,100972.53
2023-05-22T09:47:53.093Z,100968.97
2023-05-22T09:50:19.666Z,100972.81
2023-05-22T09:52:47.636Z,100971.84
2023-05-22T09:55:14.525Z,100976.94
2023-05-22T09:57:45.399Z,100967.19
2023-05-22T10:00:15.121Z,100973.81
2023-05-22T10:02:46.833Z,100970.78
2023-05-22T10:05:23.930Z,100971.38
2023-05-22T10:07:53.191Z,100977.78
2023-05-22T10:10:22.914Z,100979.41
2023-05-22T10:13:03.279Z,100974.13
2023-05-22T10:15:30.981Z,100972.69
2023-05-22T10:17:58.201Z,100963.50
2023-05-22T10:20:26.858Z,100980.03
2023-05-22T10:22:54.853Z,100979.91
2023-05-22T10:25:22.267Z,100987.97
2023-05-22T10:27:55.022Z,100981.47
2023-05-22T10:30:30.749Z,100980.38
2023-05-22T10:33:21.314Z,100981.56
2023-05-22T10:36:08.624Z,100977.78
2023-05-22T10:39:12.265Z,100974.94
2023-05-22T10:41:39.953Z,100976.97
2023-05-22T10:44:06.792Z,100973.63
2023-05-22T10:46:36.404Z,100967.00
2023-05-22T10:49:02.987Z,100972.16
2023-05-22T10:51:29.690Z,100961.38
2023-05-22T10:54:02.176Z,100965.03
2023-05-22T10:56:36.011Z,100957.28
2023-05-22T11:02:01.062Z,100960.97
2023-05-22T11:02:20.505Z,100959.44
2023-05-22T11:04:27.623Z,100954.88
2023-05-22T11:07:05.212Z,100963.81
2023-05-22T11:09:45.704Z,100955.75
2023-05-22T11:12:12.050Z,100954.03
2023-05-22T11:14:38.722Z,100947.91
2023-05-22T11:17:08.315Z,100947.72
2023-05-22T11:19:34.968Z,100950.38
2023-05-22T11:22:03.455Z,100953.63
2023-05-22T11:24:36.866Z,100953.63
2023-05-22T11:27:07.268Z,100958.31
2023-05-22T11:29:34.041Z,100946.06
2023-05-22T11:32:02.062Z,100953.41
2023-05-22T11:34:28.938Z,100948.13
2023-05-22T11:36:59.768Z,100949.13
2023-05-22T11:39:26.826Z,100947.47
2023-05-22T11:41:53.379Z,100943.63
2023-05-22T11:44:20.055Z,100942.16
2023-05-22T11:46:46.640Z,100946.44
2023-05-22T11:49:13.318Z,100940.72
2023-05-22T11:51:40.693Z,100937.66
2023-05-22T11:54:07.761Z,100943.97
2023-05-22T11:56:34.172Z,100934.28
2023-05-22T11:59:00.613Z,100936.63
2023-05-22T12:01:27.015Z,100932.50
2023-05-22T12:03:54.319Z,100932.88
2023-05-22T12:06:21.111Z,100932.63
2023-05-22T12:08:47.900Z,100927.63
2023-05-22T12:11:14.439Z,100919.53
2023-05-22T12:13:41.293Z,100928.47
2023-05-22T12:16:22.740Z,100929.31
2023-05-22T12:18:53.321Z,100919.31
2023-05-22T12:21:20.899Z,100921.03
2023-05-22T12:23:50.122Z,100919.84
2023-05-22T12:26:17.120Z,100914.97
2023-05-22T12:28:44.059Z,100915.41
2023-05-22T12:31:10.538Z,100922.94
2023-05-22T12:33:39.699Z,100910.28
2023-05-22T12:36:10.305Z,100905.91
2023-05-22T12:38:38.273Z,100913.63
2023-05-22T12:41:04.989Z,100913.94
2023-05-22T12:43:31.384Z,100910.06
2023-05-22T12:45:58.907Z,100907.63
2023-05-22T12:48:26.416Z,100892.81
2023-05-22T12:50:53.417Z,100905.22
2023-05-22T12:53:19.931Z,100896.13
2023-05-22T12:55:46.529Z,100892.09
2023-05-22T12:58:13.013Z,100900.28
2023-05-22T13:00:39.714Z,100904.34
2023-05-22T13:03:06.673Z,100904.31
2023-05-22T13:05:33.175Z,100894.75
2023-05-22T13:07:59.768Z,100897.19
2023-05-22T13:10:26.189Z,100901.44
2023-05-22T13:12:52.661Z,100903.22
2023-05-22T13:15:19.078Z,100899.50
2023-05-22T13:17:45.972Z,100891.19
2023-05-22T13:20:13.660Z,100904.22
2023-05-22T13:22:41.729Z,100890.72
2023-05-22T13:25:08.551Z,100885.34
2023-05-22T13:27:35.165Z,100882.41
2023-05-22T13:30:01.936Z,100885.19
2023-05-22T13:32:28.407Z,100880.16
2023-05-22T13:34:54.891Z,100887.94
2023-05-22T13:37:21.471Z,100894.00
2023-05-22T13:39:47.952Z,100888.75
2023-05-22T13:42:14.608Z,100892.19
2023-05-22T13:44:41.046Z,100893.50
2023-05-22T13:47:07.643Z,100888.44
2023-05-22T13:49:34.390Z,100884.72
2023-05-22T13:52:00.871Z,100888.94
2023-05-22T13:54:27.659Z,100892.66
2023-05-22T13:56:54.163Z,100888.06
2023-05-22T13:59:20.613Z,100899.16
2023-05-22T14:01:46.969Z,100888.22
2023-05-22T14:04:13.440Z,100892.97
2023-05-22T14:06:39.847Z,100891.50
2023-05-22T14:09:07.914Z,100912.53
2023-05-22T14:11:34.518Z,100905.84
2023-05-22T14:14:00.972Z,100907.66
2023-05-22T14:16:27.557Z,100903.25
2023-05-22T14:18:54.071Z,100891.66
2023-05-22T14:21:20.593Z,100895.22
2023-05-22T14:23:47.071Z,100887.53
2023-05-22T14:26:14.449Z,100893.88
2023-05-22T14:28:41.584Z,100887.03
2023-05-22T14:31:08.061Z,100891.22
2023-05-22T14:33:35.743Z,100884.88
2023-05-22T14:36:02.473Z,100886.81
2023-05-22T14:38:34.839Z,100886.03
2023-05-22T14:41:01.707Z,100884.06
2023-05-22T14:43:28.384Z,100877.72
2023-05-22T14:45:56.204Z,100875.28
2023-05-22T14:48:26.471Z,100871.56
2023-05-22T14:50:56.303Z,100858.34
2023-05-22T14:53:23.216Z,100858.91
2023-05-22T14:55:49.759Z,100859.91
2023-05-22T14:58:16.331Z,100863.00
2023-05-22T15:00:42.799Z,100859.41
2023-05-22T15:03:09.508Z,100856.97
2023-05-22T15:05:36.047Z,100870.34
2023-05-22T15:08:02.545Z,100859.25
2023-05-22T15:10:29.057Z,100864.13
2023-05-22T15:12:55.431Z,100859.91
2023-05-22T15:15:21.944Z,100853.72
2023-05-22T15:17:48.449Z,100860.22
2023-05-22T15:20:15.033Z,100860.22
2023-05-22T15:22:41.482Z,100857.75
2023-05-22T15:25:11.489Z,100846.69
2023-05-22T15:27:39.267Z,100853.50
2023-05-22T15:30:06.651Z,100842.56
2023-05-22T15:32:33.361Z,100842.38
2023-05-22T15:35:00.007Z,100831.63
2023-05-22T15:37:27.309Z,100836.84
2023-05-22T15:39:54.222Z,100832.78
2023-05-22T15:42:20.715Z,100832.41
2023-05-22T15:44:47.261Z,100834.56
2023-05-22T15:47:13.733Z,100834.09
2023-05-22T15:49:40.100Z,100835.91
2023-05-22T15:52:06.494Z,100826.94
2023-05-22T15:54:33.134Z,100831.31
2023-05-22T15:56:59.530Z,100819.09
2023-05-22T15:59:25.951Z,100828.06
2023-05-22T16:01:52.375Z,100831.31
2023-05-22T16:04:18.788Z,100834.94
2023-05-22T16:06:45.173Z,100832.47
2023-05-22T16:09:11.654Z,100832.78
2023-05-22T16:11:38.141Z,100842.72
2023-05-22T16:14:04.809Z,100837.72
2023-05-22T16:16:31.453Z,100832.00
2023-05-22T16:18:58.212Z,100833.97
2023-05-22T16:21:24.791Z,100838.09
2023-05-22T16:23:51.285Z,100839.38
2023-05-22T16:26:17.765Z,100839.72
2023-05-22T16:28:44.199Z,100834.53
2023-05-22T16:31:10.684Z,100847.41
2023-05-22T16:33:37.590Z,100843.03
2023-05-22T16:36:04.452Z,100846.94
2023-05-22T16:38:31.272Z,100852.16
2023-05-22T16:40:58.001Z,100846.94
2023-05-22T16:43:24.494Z,100836.06
2023-05-22T16:45:51.372Z,100834.91
2023-05-22T16:48:18.318Z,100843.84
2023-05-22T16:50:46.531Z,100849.44
2023-05-22T16:53:16.669Z,100845.31
2023-05-22T16:55:43.376Z,100855.72
2023-05-22T16:58:11.625Z,100859.94
2023-05-22T17:00:39.980Z,100852.25
2023-05-22T17:03:08.427Z,100855.41
2023-05-22T17:05:36.100Z,100856.84
2023-05-22T17:08:03.064Z,100861.44
2023-05-22T17:10:29.616Z,100859.34
2023-05-22T17:12:56.052Z,100867.88
2023-05-22T17:15:22.666Z,100859.06
2023-05-22T17:17:49.146Z,100858.75
2023-05-22T17:20:16.627Z,100858.91
2023-05-22T17:22:43.138Z,100858.28
2023-05-22T17:25:09.976Z,100872.66
2023-05-22T17:27:36.983Z,100867.63
2023-05-22T17:30:04.852Z,100876.72
2023-05-22T17:32:31.492Z,100880.78
2023-05-22T17:34:58.219Z,100882.28
2023-05-22T17:37:24.647Z,100879.00
2023-05-22T17:39:51.684Z,100884.38
2023-05-22T17:42:18.129Z,100881.09
2023-05-22T17:44:44.710Z,100889.13
2023-05-22T17:47:11.104Z,100892.84
2023-05-22T17:49:37.625Z,100897.06
2023-05-22T17:52:04.253Z,100895.28
2023-05-22T17:54:36.680Z,100893.00
2023-05-22T17:57:04.168Z,100899.19
2023-05-22T17:59:32.386Z,100895.94
2023-05-22T18:01:58.988Z,100905.53
2023-05-22T18:04:25.450Z,100904.06
2023-05-22T18:06:52.201Z,100902.44
2023-05-22T18:09:18.622Z,100894.97
2023-05-22T18:11:45.145Z,100896.28
2023-05-22T18:14:11.566Z,100895.28
2023-05-22T18:16:38.062Z,100898.22
2023-05-22T18:19:04.685Z,100901.97
2023-05-22T18:21:32.078Z,100901.31
2023-05-22T18:23:58.594Z,100898.22
2023-05-22T18:26:25.048Z,100906.03
2023-05-22T18:28:51.469Z,100910.56
2023-05-22T18:31:17.955Z,100921.66
2023-05-22T18:33:45.112Z,100925.72
2023-05-22T18:36:13.015Z,100919.34
2023-05-22T18:38:39.411Z,100922.25
2023-05-22T18:41:06.480Z,100934.28
2023-05-22T18:43:33.199Z,100942.41
2023-05-22T18:45:59.770Z,100947.56
2023-05-22T18:48:27.303Z,100947.88
2023-05-22T18:50:57.377Z,100951.13
2023-05-22T18:53:25.125Z,100959.53
2023-05-22T18:55:52.243Z,100956.78
2023-05-22T18:58:18.688Z,100965.19
2023-05-22T19:00:45.609Z,100958.19
2023-05-22T19:03:12.330Z,100973.78
2023-05-22T19:05:38.783Z,100970.97
2023-05-22T19:08:05.797Z,100986.56
2023-05-22T19:10:32.954Z,100979.84
2023-05-22T19:12:59.422Z,100990.53
2023-05-22T19:15:26.013Z,100989.53
2023-05-22T19:17:52.533Z,100990.19
2023-05-22T19:20:19.049Z,100994.66
2023-05-22T19:22:45.673Z,100992.63
2023-05-22T19:25:12.087Z,100996.03
2023-05-22T19:27:39.484Z,101001.69
2023-05-22T19:30:07.147Z,101004.25
2023-05-22T19:32:33.637Z,101015.44
2023-05-22T19:35:00.178Z,101012.97
2023-05-22T19:37:26.603Z,101011.47
2023-05-22T19:39:54.158Z,101022.75
2023-05-22T19:42:20.607Z,101025.59
2023-05-22T19:44:47.202Z,101022.25
2023-05-22T19:47:13.777Z,101032.88
2023-05-22T19:49:40.642Z,101027.47
2023-05-22T19:52:07.167Z,101042.91
2023-05-22T19:54:35.118Z,101041.38
2023-05-22T19:57:02.969Z,101042.97
2023-05-22T19:59:29.401Z,101051.25
2023-05-22T20:01:56.220Z,101058.03
2023-05-22T20:04:23.062Z,101062.03
2023-05-22T20:06:49.502Z,101059.25
2023-05-22T20:09:16.271Z,101059.06
2023-05-22T20:11:42.670Z,101050.69
2023-05-22T20:14:09.177Z,101063.16
2023-05-22T20:16:35.886Z,101060.72
2023-05-22T20:19:03.837Z,101066.03
2023-05-22T20:21:30.990Z,101063.88
2023-05-22T20:23:57.663Z,101061.31
2023-05-22T20:26:24.301Z,101069.59
2023-05-22T20:28:50.964Z,101065.81
2023-05-22T20:31:19.366Z,101066.75
2023-05-22T20:33:45.839Z,101068.78
2023-05-22T20:36:14.995Z,101071.84
2023-05-22T20:38:42.547Z,101080.13
2023-05-22T20:41:09.961Z,101071.97
2023-05-22T20:43:36.718Z,101071.63
2023-05-22T20:46:03.199Z,101071.63
2023-05-22T20:48:29.681Z,101076.66
2023-05-22T20:50:56.125Z,101068.66
2023-05-22T20:53:22.553Z,101075.91
2023-05-22T20:55:48.957Z,101071.94
2023-05-22T20:58:16.598Z,101079.06
2023-05-22T21:00:43.082Z,101076.38
2023-05-22T21:03:09.587Z,101073.94
2023-05-22T21:05:36.730Z,101066.06
2023-05-22T21:08:03.174Z,101068.81
2023-05-22T21:10:29.544Z,101061.47
2023-05-22T21:12:56.035Z,101063.50
2023-05-22T21:15:22.419Z,101066.31
2023-05-22T21:17:48.964Z,101060.31
2023-05-22T21:20:15.616Z,101066.66
2023-05-22T21:22:42.205Z,101070.63
2023-05-22T21:25:09.314Z,101068.53
2023-05-22T21:27:35.941Z,101068.34
2023-05-22T21:30:02.393Z,101078.13
2023-05-22T21:32:28.894Z,101072.59
2023-05-22T21:34:55.444Z,101074.00
2023-05-22T21:37:21.875Z,101071.88
2023-05-22T21:39:48.330Z,101073.59
2023-05-22T21:42:16.227Z,101079.91
2023-05-22T21:44:42.708Z,101087.09
2023-05-22T21:47:09.586Z,101079.41
2023-05-22T21:49:38.741Z,101082.28
2023-05-22T21:52:05.868Z,101090.38
2023-05-22T21:54:32.350Z,101088.75
2023-05-22T21:56:58.842Z,101089.03
2023-05-22T21:59:25.292Z,101089.44
2023-05-22T22:01:51.880Z,101106.31
2023-05-22T22:04:18.348Z,101111.91
2023-05-22T22:06:44.876Z,101107.78
2023-05-22T22:09:11.267Z,101114.13
2023-05-22T22:11:37.651Z,101108.69
2023-05-22T22:14:04.392Z,101116.72
2023-05-22T22:16:35.664Z,101114.78
2023-05-22T22:19:03.207Z,101114.28
2023-05-22T22:21:29.874Z,101114.28
2023-05-22T22:23:56.409Z,101112.63
2023-05-22T22:26:22.842Z,101115.38
2023-05-22T22:28:49.193Z,101120.34
2023-05-22T22:31:15.733Z,101116.56
2023-05-22T22:33:42.111Z,101109.47
2023-05-22T22:36:08.831Z,101113.34
2023-05-22T22:38:35.518Z,101116.59
2023-05-22T22:41:02.034Z,101113.34
2023-05-22T22:43:29.065Z,101118.59
2023-05-22T22:45:55.949Z,101126.66
2023-05-22T22:48:22.652Z,101132.19
2023-05-22T22:50:49.403Z,101150.41
2023-05-22T22:53:16.000Z,101148.84
2023-05-22T22:55:42.654Z,101150.50
2023-05-22T22:58:09.512Z,101156.03
2023-05-22T23:00:36.681Z,101152.81
2023-05-22T23:03:03.231Z,101155.56
2023-05-22T23:05:29.753Z,101156.16
2023-05-22T23:07:58.310Z,101165.28
2023-05-22T23:10:24.724Z,101159.25
2023-05-22T23:12:51.137Z,101161.78
2023-05-22T23:15:17.880Z,101159.66
2023-05-22T23:17:44.388Z,101166.28
2023-05-22T23:20:11.080Z,101164.13
2023-05-22T23:22:37.522Z,101170.94
2023-05-22T23:25:04.166Z,101172.66
2023-05-22T23:27:30.761Z,101170.69
2023-05-22T23:29:58.220Z,101171.03
2023-05-22T23:32:24.703Z,101165.00
2023-05-22T23:34:51.125Z,101167.78
2023-05-22T23:37:17.621Z,101169.72
2023-05-22T23:39:44.048Z,101169.72
2023-05-22T23:42:10.892Z,101168.09
2023-05-22T23:44:37.724Z,101165.38
2023-05-22T23:47:04.416Z,101174.13
2023-05-22T23:49:30.936Z,101174.16
2023-05-22T23:51:57.436Z,101175.88
2023-05-22T23:58:04.454Z,101184.72
